Time;durP1;ratioP1;P1;durP2;ratioP2;P2;SDS_P1;SDS_P2;PMS_P1;PMS_P2;Temp;Humidity;BMP_temperature;BMP_pressure;BME280_temperature;BME280_humidity;BME280_pressure;Samples;Min_cycle;Max_cycle;Signal;HPM_P1;HPM_P2
2023/10/05 00:04:29;;;;;;;;;;;;;;;12.11;100.00;100470.50;4956090;29;1883;-59
2023/10/05 00:06:59;;;;;;;;;;;;;;;12.11;100.00;100470.50;4955886;29;883;-59
2023/10/05 00:09:26;;;;;;;;;;;;;;;12.08;100.00;100469.34;4955743;29;853;-59
2023/10/05 00:11:56;;;;;;;;;;;;;;;12.08;100.00;100471.28;4955766;29;829;-59
2023/10/05 00:14:24;;;;;;;;;;;;;;;12.09;100.00;100470.91;4955516;29;936;-59
2023/10/05 00:16:51;;;;;;;;;;;;;;;12.10;100.00;100474.47;4938240;29;1291;-59
2023/10/05 00:19:21;;;;;;;;;;;;;;;12.06;100.00;100471.72;4955574;29;852;-59
2023/10/05 00:21:51;;;;;;;;;;;;;;;12.08;100.00;100471.28;4955462;29;880;-59
2023/10/05 00:24:30;;;;;;;;;;;;;;;12.05;100.00;100475.66;4955347;29;1970;-59
2023/10/05 00:26:58;;;;;;;;;;;;;;;12.06;100.00;100474.47;4955380;29;915;-59
2023/10/05 00:29:46;;;;;;;;;;;;;;;12.09;100.00;100473.66;4955500;29;896;-59
2023/10/05 00:32:22;;;;;;;;;;;;;;;12.16;100.00;100472.88;4955282;29;861;-59
2023/10/05 00:35:10;;;;;;;;;;;;;;;12.18;100.00;100474.09;4938132;29;1195;-59
2023/10/05 00:37:38;;;;;;;;;;;;;;;12.17;100.00;100469.72;4955209;29;908;-59
2023/10/05 00:40:06;;;;;;;;;;;;;;;12.13;100.00;100470.91;4955325;29;818;-59
2023/10/05 00:42:35;;;;;;;;;;;;;;;12.13;100.00;100473.69;4955035;29;849;-59
2023/10/05 00:45:05;;;;;;;;;;;;;;;12.08;100.00;100474.06;4954992;29;1946;-59
2023/10/05 00:47:32;;;;;;;;;;;;;;;12.07;100.00;100478.03;4955276;29;872;-59
2023/10/05 00:49:58;;;;;;;;;;;;;;;12.07;100.00;100473.28;4955148;29;837;-59
2023/10/05 00:52:26;;;;;;;;;;;;;;;12.07;100.00;100470.50;4955386;29;817;-59
2023/10/05 00:54:54;;;;;;;;;;;;;;;12.07;100.00;100470.50;4955061;29;903;-59
2023/10/05 00:57:24;;;;;;;;;;;;;;;12.00;100.00;100468.53;4954919;29;880;-59
2023/10/05 01:02:31;;;;;;;;;;;;;;;11.88;100.00;100468.91;4954762;29;826;-59
2023/10/05 01:05:09;;;;;;;;;;;;;;;11.88;100.00;100471.69;4954705;29;1959;-59
2023/10/05 01:07:56;;;;;;;;;;;;;;;11.85;100.00;100464.94;4954695;29;892;-59
2023/10/05 01:12:50;;;;;;;;;;;;;;;11.71;100.00;100466.91;4954672;29;942;-59
2023/10/05 01:15:19;;;;;;;;;;;;;;;11.68;100.00;100462.16;4954574;29;1009;-59
2023/10/05 01:17:53;;;;;;;;;;;;;;;11.59;100.00;100452.25;4954293;29;1512;-59
2023/10/05 01:20:22;;;;;;;;;;;;;;;11.51;100.00;100453.44;4954500;29;849;-59
2023/10/05 01:22:50;;;;;;;;;;;;;;;11.46;100.00;100453.84;4954384;29;909;-59
2023/10/05 01:25:16;;;;;;;;;;;;;;;11.40;100.00;100453.41;4954054;29;1938;-59
2023/10/05 01:27:47;;;;;;;;;;;;;;;11.34;100.00;100454.19;4954434;29;865;-59
2023/10/05 01:30:15;;;;;;;;;;;;;;;11.30;100.00;100447.84;4954455;29;934;-59
2023/10/05 01:32:42;;;;;;;;;;;;;;;11.24;100.00;100455.72;4954502;29;912;-59
2023/10/05 01:35:15;;;;;;;;;;;;;;;11.20;100.00;100458.50;4954287;29;892;-58
2023/10/05 01:37:45;;;;;;;;;;;;;;;11.17;100.00;100450.97;4954164;29;931;-58
2023/10/05 01:42:48;;;;;;;;;;;;;;;11.08;100.00;100447.78;4954183;29;703;-59
2023/10/05 01:45:33;;;;;;;;;;;;;;;11.06;100.00;100455.69;4954146;29;1894;-58
2023/10/05 01:48:05;;;;;;;;;;;;;;;11.06;100.00;100449.38;4954002;29;939;-59
2023/10/05 01:50:32;;;;;;;;;;;;;;;11.04;100.00;100447.00;4954089;29;864;-58
2023/10/05 01:53:07;;;;;;;;;;;;;;;11.02;100.00;100454.88;4954095;29;881;-59
2023/10/05 01:55:39;;;;;;;;;;;;;;;11.01;100.00;100450.56;4954125;29;920;-58
2023/10/05 01:58:07;;;;;;;;;;;;;;;11.03;100.00;100451.75;4953728;29;888;-59
2023/10/05 02:00:39;;;;;;;;;;;;;;;11.04;100.00;100458.84;4953950;29;849;-58
2023/10/05 02:03:07;;;;;;;;;;;;;;;11.02;100.00;100457.66;4953974;29;849;-58
2023/10/05 02:05:34;;;;;;;;;;;;;;;11.01;100.00;100453.31;4954052;29;1946;-58
2023/10/05 02:08:02;;;;;;;;;;;;;;;11.02;100.00;100454.88;4954065;29;911;-58
2023/10/05 02:10:33;;;;;;;;;;;;;;;11.06;100.00;100465.97;4953810;29;833;-58
2023/10/05 02:13:01;;;;;;;;;;;;;;;11.09;100.00;100462.41;4936605;29;1130;-59
2023/10/05 02:15:30;;;;;;;;;;;;;;;11.13;100.00;100471.53;4953573;29;825;-59
2023/10/05 02:18:13;;;;;;;;;;;;;;;11.11;100.00;100462.81;4953501;29;1302;-59
2023/10/05 02:20:43;;;;;;;;;;;;;;;11.11;100.00;100463.59;4937447;29;1177;-59
2023/10/05 02:23:25;;;;;;;;;;;;;;;11.14;100.00;100462.84;4957572;29;896;-58
2023/10/05 02:25:56;;;;;;;;;;;;;;;11.20;100.00;100466.81;4940548;29;1326;-58
2023/10/05 02:28:25;;;;;;;;;;;;;;;11.21;100.00;100468.38;4957638;29;849;-59
2023/10/05 02:30:59;;;;;;;;;;;;;;;11.24;100.00;100466.81;4957566;29;855;-59
2023/10/05 02:33:27;;;;;;;;;;;;;;;11.29;100.00;100462.84;4957534;29;837;-59
2023/10/05 02:35:59;;;;;;;;;;;;;;;11.28;100.00;100466.81;4957487;29;884;-58
2023/10/05 02:38:26;;;;;;;;;;;;;;;11.24;100.00;100466.81;4957377;29;1057;-58
2023/10/05 02:41:00;;;;;;;;;;;;;;;11.20;100.00;100469.59;4957414;29;813;-59
2023/10/05 02:43:29;;;;;;;;;;;;;;;11.18;100.00;100471.94;4957222;29;1883;-58
2023/10/05 02:46:08;;;;;;;;;;;;;;;11.15;100.00;100480.22;4957314;29;849;-59
2023/10/05 02:48:35;;;;;;;;;;;;;;;11.10;100.00;100477.84;4957216;29;928;-59
2023/10/05 02:51:05;;;;;;;;;;;;;;;11.04;100.00;100477.41;4957292;29;888;-59
2023/10/05 02:53:40;;;;;;;;;;;;;;;11.04;100.00;100483.75;4957288;29;881;-59
2023/10/05 02:56:20;;;;;;;;;;;;;;;11.01;100.00;100480.97;4957090;29;849;-59
2023/10/05 02:58:50;;;;;;;;;;;;;;;11.00;100.00;100484.91;4957473;29;853;-59
2023/10/05 03:01:17;;;;;;;;;;;;;;;10.97;100.00;100486.47;4956985;29;805;-58
2023/10/05 03:03:44;;;;;;;;;;;;;;;10.95;100.00;100485.28;4956977;29;1906;-58
2023/10/05 03:06:11;;;;;;;;;;;;;;;10.92;100.00;100488.81;4939728;29;822;-58
2023/10/05 03:08:39;;;;;;;;;;;;;;;10.88;100.00;100491.59;4939619;29;1433;-59
2023/10/05 03:11:08;;;;;;;;;;;;;;;10.82;100.00;100495.91;4956753;29;862;-58
2023/10/05 03:13:38;;;;;;;;;;;;;;;10.75;100.00;100495.84;4956592;29;925;-58
2023/10/05 03:16:10;;;;;;;;;;;;;;;10.71;100.00;100497.78;4957075;29;881;-58
2023/10/05 03:18:40;;;;;;;;;;;;;;;10.68;100.00;100485.53;4956491;29;1292;-58
2023/10/05 03:21:13;;;;;;;;;;;;;;;10.69;100.00;100487.13;4956701;29;892;-58
2023/10/05 03:23:45;;;;;;;;;;;;;;;10.74;100.00;100489.53;4956461;29;1910;-58
2023/10/05 03:26:16;;;;;;;;;;;;;;;10.77;100.00;100487.94;4956587;29;839;-58
2023/10/05 03:28:43;;;;;;;;;;;;;;;10.80;100.00;100495.50;4956249;29;902;-58
2023/10/05 03:31:14;;;;;;;;;;;;;;;10.85;100.00;100491.56;4956447;29;829;-58
2023/10/05 03:33:42;;;;;;;;;;;;;;;10.90;100.00;100491.97;4955304;28;916;-58
2023/10/05 03:36:14;;;;;;;;;;;;;;;10.99;100.00;100494.41;4956303;29;851;-59
2023/10/05 03:38:43;;;;;;;;;;;;;;;10.83;100.00;100465.06;4939313;29;1191;-59
2023/10/05 03:41:15;;;;;;;;;;;;;;;11.00;100.00;100505.06;4956142;29;888;-58
2023/10/05 03:43:45;;;;;;;;;;;;;;;10.93;100.00;100505.03;4938966;29;1886;-59
2023/10/05 03:46:12;;;;;;;;;;;;;;;10.83;100.00;100503.78;4956235;29;882;-59
2023/10/05 03:48:39;;;;;;;;;;;;;;;10.85;100.00;100500.63;4956229;29;940;-59
2023/10/05 03:51:15;;;;;;;;;;;;;;;10.86;100.00;100498.66;4956165;29;868;-59
2023/10/05 03:53:48;;;;;;;;;;;;;;;10.89;100.00;100493.16;4956172;29;1281;-59
2023/10/05 03:56:18;;;;;;;;;;;;;;;11.00;100.00;100490.44;4956225;29;887;-59
2023/10/05 03:58:46;;;;;;;;;;;;;;;11.10;100.00;100495.22;4955985;29;920;-59
2023/10/05 04:01:12;;;;;;;;;;;;;;;11.18;100.00;100487.72;4955831;29;873;-59
2023/10/05 04:03:40;;;;;;;;;;;;;;;11.23;100.00;100496.47;4954362;29;1886;-59
2023/10/05 04:06:28;;;;;;;;;;;;;;;11.23;100.00;100492.91;4955882;29;810;-59
2023/10/05 04:09:00;;;;;;;;;;;;;;;11.14;100.00;100490.50;4954725;28;1177;-58
2023/10/05 04:11:27;;;;;;;;;;;;;;;11.21;100.00;100495.25;4955708;29;893;-59
2023/10/05 04:13:54;;;;;;;;;;;;;;;11.18;100.00;100496.84;4956151;29;951;-59
2023/10/05 04:16:26;;;;;;;;;;;;;;;11.19;100.00;100497.63;4955589;29;864;-59
2023/10/05 04:18:54;;;;;;;;;;;;;;;11.27;100.00;100504.00;4938322;29;1417;-58
2023/10/05 04:21:24;;;;;;;;;;;;;;;11.33;100.00;100507.94;4955669;29;1286;-59
2023/10/05 04:23:53;;;;;;;;;;;;;;;11.45;100.00;100504.81;4955616;29;1923;-59
2023/10/05 04:26:21;;;;;;;;;;;;;;;11.59;100.00;100507.63;4955508;29;981;-59
2023/10/05 04:28:57;;;;;;;;;;;;;;;11.76;100.00;100508.06;4955396;29;853;-59
2023/10/05 04:31:27;;;;;;;;;;;;;;;11.89;100.00;100503.75;4955433;29;888;-59
2023/10/05 04:33:55;;;;;;;;;;;;;;;12.00;100.00;100501.78;4955343;29;923;-59
2023/10/05 04:36:24;;;;;;;;;;;;;;;12.13;100.00;100504.16;4955306;29;876;-59
2023/10/05 04:38:53;;;;;;;;;;;;;;;12.26;100.00;100505.34;4955573;29;916;-59
2023/10/05 04:41:21;;;;;;;;;;;;;;;12.35;100.00;100511.25;4955459;29;941;-59
2023/10/05 04:43:48;;;;;;;;;;;;;;;12.42;100.00;100510.50;4954938;28;2038;-59
2023/10/05 04:46:18;;;;;;;;;;;;;;;12.54;100.00;100520.34;4955196;29;841;-59
2023/10/05 04:48:55;;;;;;;;;;;;;;;12.69;100.00;100519.13;4955044;29;908;-59
2023/10/05 04:51:31;;;;;;;;;;;;;;;12.85;100.00;100521.50;4954939;29;895;-59
2023/10/05 04:53:59;;;;;;;;;;;;;;;13.01;100.00;100526.59;4937767;29;1472;-59
2023/10/05 04:56:43;;;;;;;;;;;;;;;13.15;100.00;100525.75;4954924;29;865;-59
2023/10/05 05:01:57;;;;;;;;;;;;;;;13.56;100.00;100531.53;4955271;29;930;-58
2023/10/05 05:04:27;;;;;;;;;;;;;;;13.79;100.00;100527.44;4954507;29;1977;-59
2023/10/05 05:06:55;;;;;;;;;;;;;;;13.91;100.00;100528.94;4954728;29;849;-59
2023/10/05 05:09:21;;;;;;;;;;;;;;;14.01;100.00;100528.84;4954661;29;849;-59
2023/10/05 05:11:49;;;;;;;;;;;;;;;14.05;100.00;100537.97;4954782;29;825;-59
2023/10/05 05:14:17;;;;;;;;;;;;;;;14.19;100.00;100533.47;4954984;29;1029;-59
2023/10/05 05:16:43;;;;;;;;;;;;;;;14.41;100.00;100542.44;4937038;29;1265;-59
2023/10/05 05:19:10;;;;;;;;;;;;;;;14.58;100.00;100543.53;4954500;29;837;-59
2023/10/05 05:21:36;;;;;;;;;;;;;;;14.68;100.00;100545.41;4954398;29;911;-59
2023/10/05 05:24:05;;;;;;;;;;;;;;;14.84;100.00;100542.84;4954320;29;1922;-59
2023/10/05 05:26:32;;;;;;;;;;;;;;;15.13;100.00;100548.09;4954335;29;837;-59
2023/10/05 05:28:58;;;;;;;;;;;;;;;15.38;100.00;100549.78;4954346;29;891;-59
2023/10/05 05:31:25;;;;;;;;;;;;;;;15.57;100.00;100545.56;4954249;29;892;-59
2023/10/05 05:33:52;;;;;;;;;;;;;;;15.66;100.00;100551.41;4954298;29;934;-59
2023/10/05 05:36:19;;;;;;;;;;;;;;;15.74;100.00;100550.13;4954171;29;920;-59
2023/10/05 05:38:47;;;;;;;;;;;;;;;15.96;100.00;100550.63;4954322;29;824;-59
2023/10/05 05:41:26;;;;;;;;;;;;;;;16.08;100.00;100555.59;4954087;29;837;-59
2023/10/05 05:43:53;;;;;;;;;;;;;;;16.22;100.00;100553.81;4936862;29;1950;-59
2023/10/05 05:46:20;;;;;;;;;;;;;;;16.63;100.00;100561.09;4953992;29;881;-59
2023/10/05 05:48:52;;;;;;;;;;;;;;;16.93;100.00;100555.34;4954060;29;817;-59
2023/10/05 05:51:22;;;;;;;;;;;;;;;17.01;100.00;100558.03;4954027;29;1292;-59
2023/10/05 05:53:49;;;;;;;;;;;;;;;16.89;100.00;100560.22;4953924;29;830;-59
2023/10/05 05:56:17;;;;;;;;;;;;;;;16.80;100.00;100562.78;4953438;28;880;-59
2023/10/05 05:58:44;;;;;;;;;;;;;;;16.74;100.00;100570.81;4953891;29;884;-59
2023/10/05 06:01:14;;;;;;;;;;;;;;;16.59;100.00;100577.09;4954013;29;880;-59
2023/10/05 06:03:43;;;;;;;;;;;;;;;16.68;100.00;100583.69;4953665;29;1890;-59
2023/10/05 06:06:10;;;;;;;;;;;;;;;16.87;100.00;100582.19;4953801;29;905;-59
2023/10/05 06:08:36;;;;;;;;;;;;;;;17.08;100.00;100578.22;4953678;29;873;-59
2023/10/05 06:11:08;;;;;;;;;;;;;;;17.20;100.00;100585.19;4953736;29;881;-59
2023/10/05 06:13:36;;;;;;;;;;;;;;;17.44;100.00;100585.09;4953908;29;1032;-59
2023/10/05 06:16:10;;;;;;;;;;;;;;;17.66;100.00;100577.81;4953686;29;857;-59
2023/10/05 06:18:36;;;;;;;;;;;;;;;17.86;100.00;100580.63;4953677;29;1276;-59
2023/10/05 06:21:04;;;;;;;;;;;;;;;18.18;100.00;100581.91;4936499;29;1283;-58
2023/10/05 06:23:35;;;;;;;;;;;;;;;18.66;100.00;100590.72;4953861;29;1967;-58
2023/10/05 06:26:02;;;;;;;;;;;;;;;19.21;100.00;100585.28;4936507;29;885;-58
2023/10/05 06:28:32;;;;;;;;;;;;;;;19.57;100.00;100593.44;4953598;29;915;-59
2023/10/05 06:30:59;;;;;;;;;;;;;;;19.78;100.00;100589.25;4953602;29;876;-58
2023/10/05 06:33:25;;;;;;;;;;;;;;;19.79;100.00;100596.41;4953564;29;876;-58
2023/10/05 06:35:52;;;;;;;;;;;;;;;19.96;100.00;100589.47;4953586;29;829;-58
2023/10/05 06:38:19;;;;;;;;;;;;;;;20.05;100.00;100594.41;4953506;29;837;-58
2023/10/05 06:40:46;;;;;;;;;;;;;;;20.01;100.00;100602.16;4953461;29;867;-58
2023/10/05 07:14:16;;;;;;;;;;;;;;;22.92;100.00;100606.34;5234540;23;1837;-63
2023/10/05 07:16:42;;;;;;;;;;;;;;;22.56;100.00;100613.50;4995667;28;1044;-61
2023/10/05 07:19:09;;;;;;;;;;;;;;;22.93;100.00;100613.53;4978018;28;1304;-61
2023/10/05 07:21:36;;;;;;;;;;;;;;;23.93;99.59;100613.16;4995262;28;958;-62
2023/10/05 07:24:04;;;;;;;;;;;;;;;24.72;91.56;100614.97;4995441;28;1906;-63
2023/10/05 07:26:31;;;;;;;;;;;;;;;25.14;88.49;100611.97;4995361;28;898;-63
2023/10/05 07:28:58;;;;;;;;;;;;;;;25.18;78.92;100620.28;4995125;28;975;-63
2023/10/05 07:31:26;;;;;;;;;;;;;;;25.26;77.24;100621.47;4994874;28;820;-63
2023/10/05 07:33:54;;;;;;;;;;;;;;;25.25;73.49;100614.25;4994727;28;915;-63
2023/10/05 07:36:21;;;;;;;;;;;;;;;25.49;69.91;100616.25;4994670;28;873;-64
2023/10/05 07:38:48;;;;;;;;;;;;;;;25.58;68.00;100610.47;4994738;28;820;-65
2023/10/05 07:41:14;;;;;;;;;;;;;;;26.15;63.42;100612.22;4996990;28;820;-62
2023/10/05 07:43:41;;;;;;;;;;;;;;;26.93;59.41;100598.34;5014287;28;1943;-63
2023/10/05 07:46:07;;;;;;;;;;;;;;;27.32;54.01;100600.88;5013998;28;965;-63
2023/10/05 07:48:32;;;;;;;;;;;;;;;27.26;55.44;100600.03;5014491;28;828;-64
2023/10/05 07:50:59;;;;;;;;;;;;;;;26.83;56.61;100603.38;5014457;28;820;-64
2023/10/05 07:53:26;;;;;;;;;;;;;;;26.16;57.63;100608.91;5014446;28;875;-64
2023/10/05 07:55:56;;;;;;;;;;;;;;;25.62;57.98;100599.75;5014436;28;914;-64
2023/10/05 07:58:22;;;;;;;;;;;;;;;25.67;59.10;100605.50;5014320;28;895;-64
2023/10/05 08:00:49;;;;;;;;;;;;;;;25.93;58.25;100599.28;5014340;28;894;-64
2023/10/05 08:03:15;;;;;;;;;;;;;;;26.21;58.26;100602.53;5014153;28;885;-64
2023/10/05 08:05:42;;;;;;;;;;;;;;;26.38;57.41;100602.78;5014090;28;1890;-64
2023/10/05 08:08:11;;;;;;;;;;;;;;;26.41;56.71;100601.00;5014323;28;800;-63
2023/10/05 08:10:38;;;;;;;;;;;;;;;26.21;56.35;100607.41;5014064;28;1040;-64
2023/10/05 08:13:06;;;;;;;;;;;;;;;26.03;56.85;100600.72;5013921;28;1228;-64
2023/10/05 08:15:34;;;;;;;;;;;;;;;26.11;56.22;100608.81;5014356;28;820;-65
2023/10/05 08:18:01;;;;;;;;;;;;;;;26.47;55.30;100608.31;5013573;28;820;-65
2023/10/05 08:20:29;;;;;;;;;;;;;;;26.19;55.67;100609.97;4996403;28;1365;-64
2023/10/05 08:22:58;;;;;;;;;;;;;;;25.99;56.53;100608.63;4996424;28;1185;-65
2023/10/05 08:25:25;;;;;;;;;;;;;;;26.38;56.17;100611.28;5013971;28;1918;-65
2023/10/05 08:27:51;;;;;;;;;;;;;;;26.65;54.46;100604.47;5013731;28;867;-65
2023/10/05 08:30:18;;;;;;;;;;;;;;;26.77;55.31;100607.44;5013747;28;875;-66
2023/10/05 08:32:48;;;;;;;;;;;;;;;26.89;55.11;100603.47;5013609;28;840;-65
2023/10/05 08:35:14;;;;;;;;;;;;;;;26.92;55.00;100602.47;5013853;28;890;-65
2023/10/05 08:37:48;;;;;;;;;;;;;;;27.08;54.86;100601.88;5013786;28;835;-65
2023/10/05 08:43:09;;;;;;;;;;;;;;;27.39;54.03;100594.72;5013488;28;837;-64
2023/10/05 08:45:46;;;;;;;;;;;;;;;27.35;53.89;100594.19;5013426;28;1890;-64
2023/10/05 08:48:19;;;;;;;;;;;;;;;27.04;54.44;100600.53;5013510;28;879;-65
2023/10/05 08:50:54;;;;;;;;;;;;;;;27.00;54.10;100597.91;5013358;28;872;-64
2023/10/05 08:53:22;;;;;;;;;;;;;;;27.15;53.65;100583.63;5013394;28;875;-65
2023/10/05 08:55:52;;;;;;;;;;;;;;;27.24;54.01;100585.56;5013231;28;886;-65
2023/10/05 08:58:21;;;;;;;;;;;;;;;27.20;54.23;100587.81;5013404;28;1275;-64
2023/10/05 09:00:48;;;;;;;;;;;;;;;27.19;53.48;100587.03;5013251;28;858;-64
2023/10/05 09:03:35;;;;;;;;;;;;;;;27.19;53.86;100591.94;5013231;28;848;-65
2023/10/05 09:06:13;;;;;;;;;;;;;;;27.05;53.92;100587.91;5013365;28;917;-65
2023/10/05 09:09:09;;;;;;;;;;;;;;;26.71;54.41;100587.50;5013093;28;1001;-64
2023/10/05 09:11:34;;;;;;;;;;;;;;;26.70;54.52;100585.19;5012907;28;977;-63
2023/10/05 09:14:18;;;;;;;;;;;;;;;26.73;54.91;100589.84;5012730;28;1232;-66
2023/10/05 09:16:45;;;;;;;;;;;;;;;26.81;54.89;100594.59;5012986;28;835;-65
2023/10/05 09:19:24;;;;;;;;;;;;;;;26.60;55.04;100590.97;5012847;28;970;-66
2023/10/05 09:21:55;;;;;;;;;;;;;;;26.60;56.01;100595.88;5012859;28;816;-65
2023/10/05 09:24:22;;;;;;;;;;;;;;;26.82;55.72;100592.53;5012749;28;1906;-65
2023/10/05 09:26:51;;;;;;;;;;;;;;;27.03;55.69;100588.41;5012698;28;816;-64
2023/10/05 09:29:21;;;;;;;;;;;;;;;27.05;55.59;100593.56;5012683;28;878;-64
2023/10/05 09:31:59;;;;;;;;;;;;;;;26.96;56.03;100594.50;5011959;28;895;-66
2023/10/05 09:34:44;;;;;;;;;;;;;;;26.98;55.91;100594.78;5012694;28;832;-66
2023/10/05 09:37:11;;;;;;;;;;;;;;;26.81;55.84;100585.31;5012815;28;1215;-64
2023/10/05 09:39:49;;;;;;;;;;;;;;;26.70;56.30;100590.84;5012808;28;816;-65
2023/10/05 09:42:16;;;;;;;;;;;;;;;26.77;56.40;100588.34;5012379;28;868;-65
2023/10/05 09:44:46;;;;;;;;;;;;;;;26.72;56.73;100586.25;5012347;28;1943;-66
2023/10/05 09:47:27;;;;;;;;;;;;;;;26.74;56.52;100585.75;5012419;28;879;-66
2023/10/05 09:49:54;;;;;;;;;;;;;;;27.02;55.85;100581.19;5012496;28;848;-65
2023/10/05 09:52:34;;;;;;;;;;;;;;;27.16;55.60;100578.72;5012627;28;863;-64
2023/10/05 09:55:03;;;;;;;;;;;;;;;27.23;56.17;100576.28;5012415;28;883;-63
2023/10/05 09:57:46;;;;;;;;;;;;;;;27.24;55.96;100579.88;5012380;28;1036;-64
2023/10/05 10:03:01;;;;;;;;;;;;;;;27.58;54.53;100577.38;5012193;28;833;-66
2023/10/05 10:05:30;;;;;;;;;;;;;;;27.87;54.38;100571.44;5012084;28;1882;-65
2023/10/05 10:07:58;;;;;;;;;;;;;;;27.99;53.97;100566.59;5012035;28;837;-65
2023/10/05 10:10:26;;;;;;;;;;;;;;;27.80;54.37;100566.19;5012065;28;836;-65
2023/10/05 10:12:52;;;;;;;;;;;;;;;27.81;53.81;100562.06;5012470;28;896;-65
2023/10/05 10:15:28;;;;;;;;;;;;;;;27.77;53.92;100557.91;5012101;28;1218;-64
2023/10/05 10:18:06;;;;;;;;;;;;;;;27.80;54.05;100557.69;5011918;28;1057;-65
2023/10/05 10:20:35;;;;;;;;;;;;;;;28.05;53.38;100555.28;5012125;28;832;-63
2023/10/05 10:23:13;;;;;;;;;;;;;;;27.86;53.37;100546.38;5012093;28;1220;-64
2023/10/05 10:25:40;;;;;;;;;;;;;;;27.59;54.25;100551.31;5005413;28;1918;-65
2023/10/05 10:28:15;;;;;;;;;;;;;;;27.65;54.89;100543.63;5011860;28;896;-65
2023/10/05 10:30:47;;;;;;;;;;;;;;;28.02;53.66;100544.94;5011942;28;904;-66
2023/10/05 10:33:35;;;;;;;;;;;;;;;28.07;53.78;100539.28;5011872;28;887;-65
2023/10/05 10:36:04;;;;;;;;;;;;;;;28.30;52.97;100530.88;5011857;28;943;-65
2023/10/05 10:38:30;;;;;;;;;;;;;;;28.50;52.47;100524.28;5011912;28;923;-66
2023/10/05 10:41:09;;;;;;;;;;;;;;;28.55;52.45;100520.69;5011771;28;832;-65
2023/10/05 10:43:39;;;;;;;;;;;;;;;28.46;52.66;100515.97;5015722;28;856;-66
2023/10/05 10:46:14;;;;;;;;;;;;;;;28.30;52.89;100517.44;5015677;28;1262;-64
2023/10/05 10:49:00;;;;;;;;;;;;;;;28.52;53.53;100510.34;5015691;28;836;-65
2023/10/05 10:51:28;;;;;;;;;;;;;;;28.64;52.69;100511.94;5015603;28;959;-65
2023/10/05 10:53:58;;;;;;;;;;;;;;;28.81;52.39;100508.38;5015578;28;816;-65
2023/10/05 10:56:30;;;;;;;;;;;;;;;28.89;51.88;100506.56;5015573;28;876;-65
2023/10/05 10:59:05;;;;;;;;;;;;;;;28.97;50.12;100499.06;5015410;28;846;-65
2023/10/05 11:01:41;;;;;;;;;;;;;;;28.97;50.69;100504.00;5015810;28;871;-65
2023/10/05 11:04:26;;;;;;;;;;;;;;;29.22;49.40;100507.94;4997676;28;1965;-64
2023/10/05 11:06:54;;;;;;;;;;;;;;;29.65;47.77;100504.81;5015704;28;879;-64
2023/10/05 11:09:29;;;;;;;;;;;;;;;29.60;46.55;100494.22;5015301;28;899;-65
2023/10/05 11:12:08;;;;;;;;;;;;;;;29.95;45.68;100502.19;5015282;28;946;-65
2023/10/05 11:14:35;;;;;;;;;;;;;;;30.24;45.21;100494.34;5015226;28;1272;-64
2023/10/05 11:17:11;;;;;;;;;;;;;;;29.97;44.82;100490.28;5015460;28;863;-65
2023/10/05 11:19:38;;;;;;;;;;;;;;;29.98;45.62;100497.53;5014962;28;844;-64
2023/10/05 11:22:10;;;;;;;;;;;;;;;30.37;44.94;100490.97;5014934;28;863;-65
2023/10/05 11:24:57;;;;;;;;;;;;;;;30.28;44.09;100483.47;5015065;28;1964;-64
2023/10/05 11:27:24;;;;;;;;;;;;;;;30.02;44.97;100481.75;5014792;28;935;-64
2023/10/05 11:29:55;;;;;;;;;;;;;;;29.58;45.71;100486.19;5014985;28;792;-65
2023/10/05 11:32:24;;;;;;;;;;;;;;;29.65;45.65;100476.34;5014913;28;876;-64
2023/10/05 11:34:55;;;;;;;;;;;;;;;29.94;45.11;100483.56;5014702;28;868;-65
2023/10/05 11:37:25;;;;;;;;;;;;;;;29.97;45.53;100476.03;5014806;28;864;-64
2023/10/05 11:39:58;;;;;;;;;;;;;;;29.78;45.97;100488.00;5014851;28;871;-65
2023/10/05 11:42:25;;;;;;;;;;;;;;;29.63;46.05;100476.09;5014680;28;851;-65
2023/10/05 11:44:59;;;;;;;;;;;;;;;29.23;47.15;100473.28;5014504;28;1949;-64
2023/10/05 11:47:38;;;;;;;;;;;;;;;29.39;47.58;100476.63;4996920;28;1339;-64
2023/10/05 11:50:24;;;;;;;;;;;;;;;29.67;47.25;100476.59;5014566;28;892;-65
2023/10/05 11:52:52;;;;;;;;;;;;;;;29.98;46.48;100474.72;5013934;28;871;-64
2023/10/05 11:55:18;;;;;;;;;;;;;;;29.92;46.42;100472.69;5014227;28;862;-64
2023/10/05 11:57:44;;;;;;;;;;;;;;;29.87;47.12;100473.50;5014659;28;940;-65
2023/10/05 12:00:15;;;;;;;;;;;;;;;30.50;46.73;100468.34;5014517;28;832;-63
2023/10/05 12:02:43;;;;;;;;;;;;;;;30.26;46.19;100474.66;5014264;28;860;-63
2023/10/05 12:05:12;;;;;;;;;;;;;;;30.01;47.08;100468.00;5014182;28;1891;-65
2023/10/05 12:07:47;;;;;;;;;;;;;;;29.45;48.33;100468.88;5014109;28;820;-65
2023/10/05 12:10:14;;;;;;;;;;;;;;;28.99;49.84;100476.56;5014456;28;868;-64
2023/10/05 12:12:41;;;;;;;;;;;;;;;29.20;49.28;100477.13;5014048;28;960;-64
2023/10/05 12:15:17;;;;;;;;;;;;;;;29.46;48.80;100476.88;5013987;28;1453;-65
2023/10/05 12:17:45;;;;;;;;;;;;;;;29.83;48.29;100481.53;5014010;28;888;-65
2023/10/05 12:20:15;;;;;;;;;;;;;;;29.81;48.21;100474.78;5013993;28;848;-65
2023/10/05 12:22:43;;;;;;;;;;;;;;;29.70;48.11;100478.41;5013944;28;848;-65
2023/10/05 12:25:14;;;;;;;;;;;;;;;29.61;48.47;100468.06;5013807;28;1906;-65
2023/10/05 12:27:41;;;;;;;;;;;;;;;29.60;48.46;100468.59;5013984;28;912;-64
2023/10/05 12:30:11;;;;;;;;;;;;;;;29.50;48.96;100471.69;5013690;28;856;-65
2023/10/05 12:32:38;;;;;;;;;;;;;;;29.64;48.52;100471.94;5013724;28;863;-64
2023/10/05 12:35:06;;;;;;;;;;;;;;;29.41;49.25;100471.97;5013666;28;994;-65
2023/10/05 12:37:33;;;;;;;;;;;;;;;29.39;49.79;100470.94;5013548;28;844;-64
2023/10/05 12:40:17;;;;;;;;;;;;;;;29.67;49.57;100468.81;5013899;28;871;-65
2023/10/05 12:42:51;;;;;;;;;;;;;;;29.90;48.56;100465.97;5013557;28;860;-65
2023/10/05 12:45:22;;;;;;;;;;;;;;;29.87;48.73;100462.09;5013463;28;2011;-65
2023/10/05 12:47:53;;;;;;;;;;;;;;;29.53;49.34;100464.19;5013387;28;833;-64
2023/10/05 12:50:20;;;;;;;;;;;;;;;29.58;49.80;100462.63;5013555;28;858;-64
2023/10/05 12:52:46;;;;;;;;;;;;;;;29.75;49.23;100454.09;5013352;28;831;-65
2023/10/05 12:55:14;;;;;;;;;;;;;;;29.42;49.65;100455.66;5013351;28;898;-64
2023/10/05 12:57:44;;;;;;;;;;;;;;;29.36;50.06;100455.69;5013283;28;844;-65
2023/10/05 13:00:19;;;;;;;;;;;;;;;29.49;50.28;100455.91;5013432;28;1290;-65
2023/10/05 13:02:51;;;;;;;;;;;;;;;29.64;49.99;100440.63;5013223;28;828;-65
2023/10/05 13:05:21;;;;;;;;;;;;;;;29.54;49.84;100451.50;5012936;28;1969;-64
2023/10/05 13:07:48;;;;;;;;;;;;;;;29.33;50.45;100447.38;5013003;28;820;-65
2023/10/05 13:10:21;;;;;;;;;;;;;;;29.22;50.89;100443.25;5013005;28;818;-65
2023/10/05 13:12:51;;;;;;;;;;;;;;;29.16;51.47;100442.47;5013341;28;935;-64
2023/10/05 13:15:24;;;;;;;;;;;;;;;29.15;51.44;100440.13;5012760;28;1293;-65
2023/10/05 13:17:57;;;;;;;;;;;;;;;28.97;52.10;100436.47;5013039;28;915;-65
2023/10/05 13:20:25;;;;;;;;;;;;;;;28.91;52.34;100438.53;5012887;28;848;-65
2023/10/05 13:22:55;;;;;;;;;;;;;;;28.94;52.01;100442.44;5012891;28;795;-65
2023/10/05 13:25:25;;;;;;;;;;;;;;;29.11;51.93;100438.34;5013122;28;1965;-65
2023/10/05 13:27:55;;;;;;;;;;;;;;;28.96;51.91;100432.09;5012705;28;852;-64
2023/10/05 13:30:27;;;;;;;;;;;;;;;29.09;51.63;100429.53;5012754;28;851;-65
2023/10/05 13:32:57;;;;;;;;;;;;;;;29.02;51.42;100437.78;5012764;28;883;-66
2023/10/05 13:35:29;;;;;;;;;;;;;;;28.70;52.14;100435.16;4994977;28;868;-65
2023/10/05 13:37:57;;;;;;;;;;;;;;;28.42;53.07;100437.91;5012374;28;928;-65
2023/10/05 13:40:34;;;;;;;;;;;;;;;28.43;53.12;100426.03;5012524;28;967;-65
2023/10/05 13:43:01;;;;;;;;;;;;;;;28.24;54.21;100424.94;5012542;28;938;-65
2023/10/05 13:45:33;;;;;;;;;;;;;;;28.00;54.98;100423.28;5012445;28;1886;-66
2023/10/05 13:48:01;;;;;;;;;;;;;;;28.11;54.93;100422.56;5012568;28;836;-66
2023/10/05 13:50:28;;;;;;;;;;;;;;;27.88;55.47;100425.28;5012380;28;911;-65
2023/10/05 13:52:57;;;;;;;;;;;;;;;27.90;55.56;100428.38;5012354;28;872;-65
2023/10/05 13:55:25;;;;;;;;;;;;;;;28.07;55.75;100427.69;5012037;28;861;-62
2023/10/05 13:57:54;;;;;;;;;;;;;;;27.88;55.38;100433.03;5012336;28;883;-62